Terminal Aerodrome Forecast
Issued by NWS

Home | Current Version | Previous Version | Text Only | Print | Product List | Glossary On
Versions: 1 2 3 4 5 6 7 8 9 10 11 12 13 14 15 16 17 18 19 20 21 22 23 24 25
733
FTUS43 KDVN 120130 AAA
TAFBRL
TAF AMD
KBRL 120130Z 1202/1224 17004KT P6SM OVC080
     FM120300 17005KT 3SM -SN BR OVC025
      TEMPO 1203/1205 1 1/2SM -SN BR
     FM120500 22004KT 6SM -SHSN OVC025
     FM121500 32013KT P6SM BKN025
     FM121900 33016G24KT P6SM BKN040=

USA.gov is the U.S. government's official web portal to all federal, state and local government web resources and services.